Time;durP1;ratioP1;P1;durP2;ratioP2;P2;SDS_P1;SDS_P2;PMS_P1;PMS_P2;Temp;Humidity;BMP_temperature;BMP_pressure;BME280_temperature;BME280_humidity;BME280_pressure;Samples;Min_cycle;Max_cycle;Signal;HPM_P1;HPM_P2
2022/07/26 04:06:07;;;;;;;3.20;2.60;;;18.80;99.90;;;;;;5032881;28;20470;-70
2022/07/26 04:08:32;;;;;;;2.60;2.03;;;18.70;99.90;;;;;;5035172;28;20395;-70
2022/07/26 04:10:58;;;;;;;2.63;2.43;;;18.70;99.90;;;;;;5034507;28;20253;-70
2022/07/26 04:13:24;;;;;;;2.73;2.40;;;18.70;99.90;;;;;;5030558;28;20221;-72
2022/07/26 04:15:50;;;;;;;2.40;2.20;;;18.70;99.90;;;;;;5014785;28;20185;-70
2022/07/26 04:18:15;;;;;;;2.13;2.03;;;18.70;99.90;;;;;;5014567;28;20213;-70
2022/07/26 04:20:42;;;;;;;4.00;2.77;;;18.70;99.90;;;;;;5015264;28;20478;-70
2022/07/26 04:23:08;;;;;;;2.80;2.10;;;18.70;99.90;;;;;;5014404;28;20246;-70
2022/07/26 04:25:33;;;;;;;5.07;2.37;;;18.90;99.90;;;;;;5015178;28;20412;-70
2022/07/26 04:28:00;;;;;;;2.40;2.20;;;18.90;99.90;;;;;;5013913;28;21047;-70
2022/07/26 04:30:27;;;;;;;2.50;2.20;;;19.10;99.90;;;;;;5015155;28;20225;-71
2022/07/26 04:32:52;;;;;;;2.93;2.67;;;19.30;99.90;;;;;;5014057;28;20419;-71
2022/07/26 04:35:18;;;;;;;2.63;2.30;;;19.40;99.90;;;;;;5012677;28;20455;-70
2022/07/26 04:37:44;;;;;;;2.67;1.70;;;19.50;99.90;;;;;;5014919;28;20510;-70
2022/07/26 04:40:14;;;;;;;2.70;2.50;;;19.70;99.90;;;;;;5013587;28;20457;-70
2022/07/26 04:42:40;;;;;;;2.53;2.33;;;19.80;99.90;;;;;;5014388;28;20405;-70
2022/07/26 04:45:06;;;;;;;3.80;3.23;;;19.70;99.90;;;;;;5014311;28;20419;-70
2022/07/26 04:47:32;;;;;;;2.37;2.17;;;19.60;99.90;;;;;;5014725;28;20185;-70
2022/07/26 04:49:57;;;;;;;2.40;2.20;;;19.40;99.90;;;;;;5014695;28;20459;-70
2022/07/26 04:52:23;;;;;;;2.50;2.30;;;19.40;99.90;;;;;;5014600;28;20171;-71
2022/07/26 04:54:49;;;;;;;2.17;2.03;;;19.30;99.90;;;;;;5014150;28;20202;-70
2022/07/26 04:57:14;;;;;;;2.53;2.33;;;19.20;99.90;;;;;;5014691;28;20175;-70
2022/07/26 04:59:40;;;;;;;2.67;2.47;;;19.20;99.90;;;;;;5014589;28;20211;-70
2022/07/26 05:02:05;;;;;;;1.90;1.80;;;19.20;99.90;;;;;;5014085;28;20518;-70
2022/07/26 05:04:31;;;;;;;2.90;2.00;;;19.20;99.90;;;;;;5013409;28;20207;-69
2022/07/26 05:07:01;;;;;;;2.93;2.00;;;19.30;99.90;;;;;;5014221;28;20171;-69
2022/07/26 05:09:29;;;;;;;2.33;2.13;;;19.40;99.90;;;;;;5014213;28;20254;-69
2022/07/26 05:11:55;;;;;;;2.13;1.93;;;19.60;99.90;;;;;;5014118;28;20406;-70
2022/07/26 05:14:21;;;;;;;2.10;1.90;;;19.80;99.90;;;;;;5013453;28;20530;-70
2022/07/26 05:16:47;;;;;;;2.57;2.30;;;19.90;99.90;;;;;;5012798;28;20417;-70
2022/07/26 05:19:13;;;;;;;3.43;2.63;;;20.10;99.90;;;;;;5013479;28;20700;-70
2022/07/26 05:21:39;;;;;;;2.53;2.33;;;20.20;99.90;;;;;;5013856;28;20265;-69
2022/07/26 05:24:05;;;;;;;2.03;1.83;;;20.40;99.90;;;;;;5007885;28;20883;-69
2022/07/26 05:26:31;;;;;;;2.60;2.40;;;20.70;99.90;;;;;;5006908;28;20646;-69
2022/07/26 05:28:57;;;;;;;4.27;2.77;;;20.90;99.90;;;;;;5013963;28;20388;-68
2022/07/26 05:31:23;;;;;;;2.20;2.10;;;21.20;99.90;;;;;;5014018;28;20421;-68
2022/07/26 05:33:49;;;;;;;2.97;2.07;;;21.30;99.90;;;;;;5011800;28;20809;-68
2022/07/26 05:36:14;;;;;;;1.67;1.57;;;21.40;99.90;;;;;;5011813;28;20400;-71
2022/07/26 05:38:40;;;;;;;2.23;2.13;;;21.50;99.90;;;;;;5011204;28;20249;-71
2022/07/26 05:41:06;;;;;;;2.57;2.37;;;21.60;99.90;;;;;;5011701;28;20222;-70
2022/07/26 05:43:32;;;;;;;1.83;1.73;;;21.80;99.90;;;;;;5011175;28;20194;-72
2022/07/26 05:45:58;;;;;;;1.80;1.70;;;22.10;99.90;;;;;;5011544;28;20416;-71
2022/07/26 05:48:23;;;;;;;1.93;1.83;;;22.30;99.90;;;;;;5011939;28;20436;-70
2022/07/26 05:50:49;;;;;;;2.53;1.77;;;22.50;99.90;;;;;;5013641;28;20210;-70
2022/07/26 05:53:15;;;;;;;1.37;1.37;;;22.70;99.90;;;;;;5013178;28;20204;-69
2022/07/26 05:55:40;;;;;;;4.13;2.70;;;22.80;99.90;;;;;;5013743;28;20178;-69
2022/07/26 05:58:06;;;;;;;2.10;2.00;;;22.90;99.90;;;;;;5013155;28;20686;-69
2022/07/26 06:00:32;;;;;;;2.40;2.20;;;22.90;99.90;;;;;;5013257;28;20248;-70
2022/07/26 06:02:57;;;;;;;2.40;2.30;;;22.80;99.90;;;;;;5013317;28;20886;-69
2022/07/26 06:05:23;;;;;;;2.80;2.53;;;22.70;99.90;;;;;;5013279;28;20292;-69
2022/07/26 06:07:49;;;;;;;1.77;1.50;;;22.60;99.90;;;;;;5013337;28;20182;-70
2022/07/26 06:10:15;;;;;;;2.20;2.00;;;22.50;99.90;;;;;;5013582;28;20206;-70
2022/07/26 06:12:40;;;;;;;1.90;1.80;;;22.40;99.90;;;;;;5012796;28;20183;-71
2022/07/26 06:15:06;;;;;;;2.63;2.43;;;22.40;99.90;;;;;;5013314;28;20193;-69
2022/07/26 06:17:32;;;;;;;2.00;1.90;;;22.50;99.90;;;;;;5013172;28;20175;-69
2022/07/26 06:19:58;;;;;;;1.87;1.77;;;22.50;99.90;;;;;;5013378;28;20454;-70
2022/07/26 06:22:24;;;;;;;2.00;1.90;;;22.60;99.90;;;;;;5012895;28;20169;-68
2022/07/26 06:24:50;;;;;;;1.87;1.77;;;22.60;99.90;;;;;;5013247;28;20789;-70
2022/07/26 06:27:16;;;;;;;2.27;1.83;;;22.70;99.90;;;;;;5012984;28;20421;-66
2022/07/26 06:29:42;;;;;;;1.83;1.73;;;22.80;99.90;;;;;;5013264;28;20649;-67
2022/07/26 06:32:07;;;;;;;1.77;1.67;;;22.80;99.90;;;;;;5013256;28;20173;-67
2022/07/26 06:34:33;;;;;;;1.87;1.77;;;22.80;99.90;;;;;;5013019;28;20190;-67
2022/07/26 06:36:59;;;;;;;2.20;2.00;;;22.90;99.90;;;;;;5016949;28;20272;-68
2022/07/26 06:39:25;;;;;;;2.03;1.90;;;23.00;99.90;;;;;;5015563;28;20259;-66
2022/07/26 06:41:50;;;;;;;2.20;2.10;;;23.00;99.90;;;;;;5016795;28;20167;-66
2022/07/26 06:44:16;;;;;;;2.60;2.10;;;23.10;99.90;;;;;;5016195;28;20191;-67
2022/07/26 06:46:41;;;;;;;1.90;1.80;;;23.10;99.90;;;;;;5016864;28;20198;-67
2022/07/26 06:49:07;;;;;;;2.20;1.43;;;23.20;99.90;;;;;;5016922;28;20178;-67
2022/07/26 06:51:33;;;;;;;1.90;1.60;;;23.30;99.90;;;;;;5016836;28;20306;-67
2022/07/26 06:53:58;;;;;;;1.73;1.63;;;23.40;99.90;;;;;;5016403;28;20202;-67
2022/07/26 06:56:24;;;;;;;3.30;2.03;;;23.60;99.90;;;;;;5016425;28;20219;-66
2022/07/26 06:58:50;;;;;;;1.80;1.60;;;23.70;99.90;;;;;;5016784;28;20209;-67
2022/07/26 07:01:15;;;;;;;2.03;1.93;;;23.70;99.90;;;;;;5015458;28;20190;-68
2022/07/26 07:03:41;;;;;;;1.40;1.30;;;23.70;99.90;;;;;;5016269;28;20199;-66
2022/07/26 07:06:07;;;;;;;1.17;1.17;;;23.70;99.90;;;;;;5016435;28;20190;-67
2022/07/26 07:08:33;;;;;;;1.43;1.27;;;23.70;99.90;;;;;;5016727;28;20174;-69
2022/07/26 07:10:59;;;;;;;7.13;1.30;;;23.80;99.90;;;;;;5017222;28;20550;-69
2022/07/26 07:13:24;;;;;;;5.03;1.60;;;23.90;99.80;;;;;;5016276;28;20499;-69
2022/07/26 07:15:50;;;;;;;1.50;1.40;;;24.00;99.90;;;;;;5015841;28;20209;-67
2022/07/26 07:18:16;;;;;;;3.20;1.50;;;24.20;99.40;;;;;;5016519;28;20201;-67
2022/07/26 07:20:41;;;;;;;1.90;1.43;;;24.40;97.30;;;;;;5016480;28;20226;-66
2022/07/26 07:23:07;;;;;;;1.47;1.27;;;24.40;97.00;;;;;;5015900;28;20196;-67
2022/07/26 07:25:33;;;;;;;1.50;1.40;;;24.50;96.40;;;;;;5015531;28;20178;-67
2022/07/26 07:27:59;;;;;;;1.10;1.10;;;24.60;96.50;;;;;;5016070;28;20210;-67
2022/07/26 07:30:26;;;;;;;1.30;1.20;;;24.60;95.70;;;;;;5016514;28;20178;-66
2022/07/26 07:32:52;;;;;;;0.90;0.90;;;24.70;95.00;;;;;;5015785;28;20471;-67
2022/07/26 07:35:18;;;;;;;1.77;1.67;;;24.90;94.80;;;;;;5015830;28;20426;-67
2022/07/26 07:37:44;;;;;;;3.63;2.33;;;25.10;94.60;;;;;;5016251;28;20425;-67
2022/07/26 07:40:10;;;;;;;1.90;1.70;;;25.30;93.80;;;;;;5014725;28;20662;-67
2022/07/26 07:42:36;;;;;;;1.63;1.53;;;25.70;93.90;;;;;;5015956;28;20817;-67
2022/07/26 07:45:02;;;;;;;1.43;1.10;;;26.30;92.60;;;;;;5015891;28;20418;-67
2022/07/26 07:47:31;;;;;;;1.47;1.20;;;27.30;91.30;;;;;;5015313;28;20684;-68
2022/07/26 07:49:57;;;;;;;0.90;0.90;;;28.60;89.10;;;;;;5015823;28;20427;-68
2022/07/26 07:52:23;;;;;;;1.17;1.00;;;29.90;83.30;;;;;;5015612;28;20410;-68
2022/07/26 07:54:48;;;;;;;1.30;1.20;;;31.30;76.00;;;;;;5015722;28;20605;-68
2022/07/26 07:57:14;;;;;;;1.23;1.13;;;32.40;68.90;;;;;;5014033;28;20422;-68
2022/07/26 07:59:40;;;;;;;1.10;1.10;;;33.30;66.20;;;;;;5015567;28;20207;-68
2022/07/26 08:02:06;;;;;;;1.27;1.23;;;33.80;61.30;;;;;;5015692;28;20174;-69
2022/07/26 08:04:31;;;;;;;1.10;1.10;;;34.10;59.10;;;;;;5014869;28;20445;-68
2022/07/26 08:06:57;;;;;;;1.40;1.30;;;34.50;59.50;;;;;;5015232;28;20179;-70
2022/07/26 08:09:23;;;;;;;1.07;0.97;;;35.00;57.40;;;;;;5015536;28;20310;-68
2022/07/26 08:11:48;;;;;;;1.13;1.13;;;35.50;56.90;;;;;;5015471;28;20211;-68
2022/07/26 08:14:14;;;;;;;2.87;1.43;;;36.10;55.80;;;;;;5014593;28;20187;-68
2022/07/26 08:16:39;;;;;;;1.20;1.20;;;36.90;54.70;;;;;;5015449;28;20178;-68
2022/07/26 08:19:06;;;;;;;1.40;1.30;;;37.70;52.50;;;;;;5015430;28;20636;-68
2022/07/26 08:21:32;;;;;;;1.00;1.00;;;38.10;50.60;;;;;;5013983;28;20449;-68
2022/07/26 08:23:57;;;;;;;2.60;1.43;;;38.10;50.80;;;;;;5013549;28;20205;-68
2022/07/26 08:26:23;;;;;;;1.53;1.30;;;;;;;;;;5014957;28;20265;-68
2022/07/26 08:28:49;;;;;;;1.30;1.20;;;;;;;;;;5013792;28;20178;-68
2022/07/26 08:31:15;;;;;;;1.20;1.20;;;38.10;50.20;;;;;;5014935;28;20432;-68
2022/07/26 08:33:41;;;;;;;1.10;1.10;;;36.50;50.50;;;;;;5014631;28;20437;-68
2022/07/26 08:36:07;;;;;;;1.60;1.20;;;35.70;50.80;;;;;;5015109;28;20179;-70
2022/07/26 08:38:33;;;;;;;1.00;1.00;;;;;;;;;;5015006;28;20203;-68
2022/07/26 08:40:58;;;;;;;1.80;1.67;;;35.50;51.60;;;;;;5014672;28;20183;-68
2022/07/26 08:43:24;;;;;;;1.63;1.20;;;35.10;51.50;;;;;;5014422;28;20433;-68
2022/07/26 08:45:50;;;;;;;1.17;1.07;;;34.40;51.80;;;;;;5014873;28;20253;-68
2022/07/26 08:48:15;;;;;;;0.93;0.80;;;33.80;52.20;;;;;;5014813;28;20523;-68
2022/07/26 08:50:41;;;;;;;0.97;0.97;;;33.60;53.10;;;;;;5014246;28;20183;-69
2022/07/26 08:53:10;;;;;;;1.07;1.07;;;33.70;52.60;;;;;;5014467;28;20179;-68
2022/07/26 08:55:36;;;;;;;1.23;1.03;;;33.20;52.80;;;;;;5013369;28;20409;-68
2022/07/26 08:58:02;;;;;;;1.13;1.03;;;32.50;54.20;;;;;;5013979;28;20786;-68
2022/07/26 09:00:30;;;;;;;0.90;0.90;;;31.90;54.00;;;;;;5012600;28;20182;-67
2022/07/26 09:02:57;;;;;;;1.47;1.10;;;31.70;55.50;;;;;;5013991;28;20412;-68
2022/07/26 09:05:30;;;;;;;4.67;1.23;;;31.40;55.50;;;;;;5013981;28;20504;-68
2022/07/26 09:07:58;;;;;;;0.87;0.83;;;32.10;55.30;;;;;;5014265;28;20430;-68
2022/07/26 09:10:24;;;;;;;1.17;1.10;;;33.10;54.50;;;;;;5012582;28;20418;-68
2022/07/26 09:12:57;;;;;;;1.00;1.00;;;33.80;53.70;;;;;;5013851;28;20778;-69
2022/07/26 09:15:25;;;;;;;1.00;1.00;;;34.00;52.10;;;;;;5013898;28;20492;-68
2022/07/26 09:17:55;;;;;;;1.20;1.10;;;33.30;51.90;;;;;;5014300;28;20965;-68
2022/07/26 09:20:26;;;;;;;3.53;3.33;;;32.80;53.10;;;;;;5013912;28;20561;-68
2022/07/26 09:23:10;;;;;;;1.53;1.40;;;33.10;53.70;;;;;;5013744;28;20414;-68
2022/07/26 09:25:38;;;;;;;4.23;3.93;;;33.80;53.20;;;;;;5014222;28;20412;-69
2022/07/26 09:28:24;;;;;;;3.87;3.67;;;34.50;52.30;;;;;;5014064;28;20759;-68
2022/07/26 09:31:01;;;;;;;1.37;1.20;;;35.10;52.00;;;;;;5013808;28;20425;-69
2022/07/26 09:33:44;;;;;;;1.20;1.10;;;34.80;50.90;;;;;;5013742;28;20425;-68
2022/07/26 09:36:09;;;;;;;3.10;1.23;;;34.00;50.80;;;;;;5012758;28;20422;-68
2022/07/26 09:38:52;;;;;;;1.00;1.00;;;33.00;52.30;;;;;;5013914;28;20457;-68
2022/07/26 09:41:29;;;;;;;1.90;1.50;;;32.30;53.10;;;;;;5013606;28;20538;-68
2022/07/26 09:44:00;;;;;;;1.40;1.00;;;32.30;53.60;;;;;;5013575;28;20464;-68
2022/07/26 09:46:30;;;;;;;1.13;1.03;;;32.40;53.60;;;;;;5013845;28;20409;-68
2022/07/26 09:48:59;;;;;;;1.23;1.13;;;32.90;53.30;;;;;;5012458;28;20392;-69
2022/07/26 09:51:36;;;;;;;0.93;0.93;;;33.20;52.60;;;;;;5013357;28;20456;-68
2022/07/26 09:54:02;;;;;;;1.20;1.07;;;33.90;52.10;;;;;;5013353;28;20411;-68
2022/07/26 09:56:49;;;;;;;1.67;1.10;;;34.70;50.60;;;;;;5013916;28;20414;-68
2022/07/26 09:59:18;;;;;;;1.13;1.10;;;35.60;49.90;;;;;;5013566;28;20470;-69
2022/07/26 10:01:44;;;;;;;1.90;1.80;;;36.40;48.60;;;;;;5012079;28;20944;-69
2022/07/26 10:04:10;;;;;;;1.40;1.30;;;36.50;48.40;;;;;;5013159;28;20422;-69
2022/07/26 10:06:35;;;;;;;1.23;1.23;;;36.80;48.50;;;;;;5013428;28;20195;-68
2022/07/26 10:09:02;;;;;;;1.17;1.17;;;37.30;47.90;;;;;;5012757;28;20501;-68
2022/07/26 10:11:51;;;;;;;1.37;1.27;;;37.00;47.40;;;;;;5013281;28;20186;-69
2022/07/26 10:14:31;;;;;;;1.50;1.50;;;37.00;48.40;;;;;;5006422;28;20502;-69
2022/07/26 10:16:58;;;;;;;1.30;1.30;;;37.00;47.40;;;;;;5013362;28;20950;-69
2022/07/26 10:19:40;;;;;;;1.10;1.10;;;37.10;48.00;;;;;;5013343;28;20469;-69
2022/07/26 10:22:26;;;;;;;1.10;1.10;;;37.10;48.10;;;;;;4993749;28;20465;-69
2022/07/26 10:24:52;;;;;;;1.33;1.23;;;36.80;47.80;;;;;;4992392;28;20431;-69
2022/07/26 10:27:36;;;;;;;1.07;1.07;;;37.00;47.90;;;;;;4993713;28;20814;-70
2022/07/26 10:30:32;;;;;;;1.30;1.20;;;36.90;46.90;;;;;;5012418;28;20410;-70
2022/07/26 10:33:02;;;;;;;1.60;1.50;;;36.70;47.80;;;;;;5003539;28;20434;-69
2022/07/26 10:35:32;;;;;;;1.10;1.10;;;36.10;47.80;;;;;;5013758;28;20407;-68
2022/07/26 10:38:01;;;;;;;1.17;1.10;;;35.60;49.00;;;;;;5012963;28;20402;-67
2022/07/26 10:40:29;;;;;;;1.70;1.00;;;35.40;49.40;;;;;;5012055;28;20430;-69
2022/07/26 10:43:16;;;;;;;2.10;2.00;;;35.30;49.50;;;;;;5011638;28;20418;-70
2022/07/26 10:45:42;;;;;;;1.37;1.30;;;35.20;49.60;;;;;;5012029;28;20429;-68
2022/07/26 10:48:19;;;;;;;1.00;1.00;;;35.40;49.60;;;;;;5013171;28;20471;-70
2022/07/26 10:50:50;;;;;;;0.90;0.90;;;35.50;48.20;;;;;;5012898;28;20834;-71
2022/07/26 10:53:22;;;;;;;1.30;1.27;;;35.60;48.80;;;;;;5012655;28;20910;-70
2022/07/26 10:55:57;;;;;;;1.70;1.60;;;35.60;48.50;;;;;;5013196;28;20455;-69
2022/07/26 10:58:24;;;;;;;1.10;1.10;;;35.60;49.60;;;;;;5013133;28;20504;-68
2022/07/26 11:01:02;;;;;;;1.37;1.20;;;35.70;48.90;;;;;;5012731;28;20587;-69
2022/07/26 11:03:41;;;;;;;1.40;1.30;;;35.60;48.80;;;;;;5012421;28;20430;-70
2022/07/26 11:06:15;;;;;;;1.03;1.03;;;35.60;48.60;;;;;;5012859;28;20464;-68
2022/07/26 11:08:43;;;;;;;0.97;0.97;;;35.40;48.90;;;;;;5011603;28;20759;-70
2022/07/26 11:11:09;;;;;;;1.80;1.57;;;34.90;48.60;;;;;;5012590;28;20441;-69
2022/07/26 11:13:36;;;;;;;1.40;1.30;;;34.40;48.90;;;;;;5012571;28;20421;-69
2022/07/26 11:16:04;;;;;;;3.43;1.13;;;33.90;49.70;;;;;;5012952;28;20175;-71
2022/07/26 11:18:34;;;;;;;1.10;1.00;;;33.40;50.40;;;;;;5012908;28;20551;-69
2022/07/26 11:21:14;;;;;;;0.90;0.90;;;32.90;50.50;;;;;;5013467;28;20430;-69
2022/07/26 11:23:45;;;;;;;1.70;1.40;;;32.00;50.50;;;;;;5016077;28;20512;-69
2022/07/26 11:26:18;;;;;;;1.07;1.03;;;31.10;52.40;;;;;;5016519;28;20445;-68
2022/07/26 11:28:45;;;;;;;1.03;0.90;;;30.40;53.90;;;;;;5016449;28;20725;-67
2022/07/26 11:31:10;;;;;;;1.93;1.00;;;30.00;54.20;;;;;;5015939;28;20434;-68
2022/07/26 11:33:37;;;;;;;1.50;1.07;;;29.70;55.10;;;;;;5015750;28;20419;-69
2022/07/26 11:36:04;;;;;;;1.40;1.30;;;29.30;55.60;;;;;;5016110;28;20171;-68
2022/07/26 11:38:50;;;;;;;1.50;1.10;;;29.00;55.70;;;;;;5014530;28;20769;-68
2022/07/26 11:41:34;;;;;;;2.73;0.70;;;28.70;56.50;;;;;;5015334;28;20738;-69
2022/07/26 11:44:00;;;;;;;1.20;1.00;;;28.40;56.60;;;;;;5015302;28;20515;-67
2022/07/26 11:46:45;;;;;;;1.00;1.00;;;28.30;57.90;;;;;;5015822;28;20417;-68
2022/07/26 11:49:17;;;;;;;0.73;0.73;;;28.20;57.80;;;;;;5016174;28;20384;-68
2022/07/26 11:51:59;;;;;;;1.00;1.00;;;28.20;56.90;;;;;;5014369;28;20705;-68
2022/07/26 11:54:30;;;;;;;1.23;1.13;;;28.10;57.50;;;;;;5014066;28;20506;-69
2022/07/26 11:57:02;;;;;;;0.60;0.60;;;28.10;56.30;;;;;;5015778;28;20968;-68
2022/07/26 11:59:33;;;;;;;0.80;0.80;;;28.00;56.10;;;;;;5015725;28;20946;-69
2022/07/26 12:02:01;;;;;;;0.97;0.80;;;27.80;56.00;;;;;;5015092;28;20948;-68
2022/07/26 12:04:29;;;;;;;1.27;1.17;;;27.60;56.50;;;;;;5015031;28;20399;-70
2022/07/26 12:06:56;;;;;;;0.70;0.70;;;27.60;57.70;;;;;;5015937;28;20385;-68
2022/07/26 12:09:33;;;;;;;0.63;0.63;;;27.60;56.70;;;;;;5015526;28;20429;-68
2022/07/26 12:12:19;;;;;;;0.77;0.77;;;27.60;57.20;;;;;;5015346;28;20912;-68
2022/07/26 12:15:04;;;;;;;1.00;1.00;;;27.60;56.50;;;;;;5015098;28;20425;-70
2022/07/26 12:17:31;;;;;;;0.90;0.90;;;27.70;56.40;;;;;;5015317;28;20463;-68
2022/07/26 12:20:13;;;;;;;0.80;0.70;;;27.80;56.90;;;;;;5014135;28;20478;-68
2022/07/26 12:22:40;;;;;;;0.70;0.70;;;27.80;56.10;;;;;;5014822;28;20441;-70
2022/07/26 12:25:06;;;;;;;0.90;0.90;;;27.60;55.90;;;;;;5014737;28;20437;-67
2022/07/26 12:27:33;;;;;;;1.00;1.00;;;27.50;56.40;;;;;;5014071;28;20433;-68
2022/07/26 12:30:01;;;;;;;0.93;0.90;;;27.50;56.90;;;;;;5013836;28;20427;-66
2022/07/26 12:32:38;;;;;;;0.67;0.67;;;27.40;56.40;;;;;;5012517;28;20426;-68
2022/07/26 12:35:11;;;;;;;0.80;0.80;;;27.40;57.40;;;;;;5014426;28;20792;-67
2022/07/26 12:37:48;;;;;;;1.20;1.10;;;27.40;56.40;;;;;;5013826;28;20488;-74
2022/07/26 12:40:17;;;;;;;0.80;0.80;;;27.40;56.90;;;;;;5014126;28;20501;-72
2022/07/26 12:42:56;;;;;;;1.00;1.00;;;27.40;57.10;;;;;;5011939;28;20457;-74
2022/07/26 12:45:27;;;;;;;1.13;1.13;;;27.40;55.80;;;;;;5014237;28;20419;-74
2022/07/26 12:47:55;;;;;;;0.70;0.70;;;27.40;56.70;;;;;;5014429;28;20428;-71
2022/07/26 12:50:24;;;;;;;0.70;0.70;;;27.40;56.30;;;;;;5013768;28;20405;-72
2022/07/26 12:52:49;;;;;;;2.73;1.30;;;27.40;55.60;;;;;;5013735;28;20394;-74
2022/07/26 12:55:19;;;;;;;2.00;1.23;;;27.40;55.30;;;;;;5014385;28;20552;-72
2022/07/26 12:57:46;;;;;;;0.90;0.90;;;27.40;55.60;;;;;;5014412;28;20417;-72
2022/07/26 13:00:13;;;;;;;1.93;1.83;;;27.40;57.10;;;;;;5013695;28;20491;-72
2022/07/26 13:02:40;;;;;;;1.10;0.90;;;27.40;56.80;;;;;;5013858;28;20415;-71
2022/07/26 13:05:07;;;;;;;0.80;0.80;;;27.50;56.90;;;;;;5014170;28;20417;-73
2022/07/26 13:07:33;;;;;;;0.83;0.83;;;27.50;55.80;;;;;;5014397;28;20407;-71
2022/07/26 13:09:58;;;;;;;0.80;0.80;;;27.50;55.40;;;;;;5013930;28;20407;-73
2022/07/26 13:12:24;;;;;;;1.20;1.10;;;27.50;55.60;;;;;;5013927;28;20183;-73
2022/07/26 13:14:50;;;;;;;1.20;0.90;;;27.60;55.80;;;;;;5013981;28;20273;-72
2022/07/26 13:17:15;;;;;;;0.80;0.80;;;27.60;56.30;;;;;;5014158;28;20172;-73
2022/07/26 13:19:41;;;;;;;0.77;0.77;;;27.70;55.70;;;;;;5013544;28;20203;-74
2022/07/26 13:22:08;;;;;;;0.80;0.80;;;27.70;54.70;;;;;;5013507;28;20175;-68
2022/07/26 13:24:36;;;;;;;0.60;0.60;;;27.70;54.60;;;;;;5013736;28;20418;-68
2022/07/26 13:27:03;;;;;;;0.67;0.67;;;27.70;54.30;;;;;;5014092;28;20406;-68
2022/07/26 13:29:29;;;;;;;0.90;0.90;;;27.80;53.80;;;;;;5013438;28;20405;-68
2022/07/26 13:31:58;;;;;;;0.70;0.70;;;27.80;54.20;;;;;;5013954;28;20911;-68
2022/07/26 13:34:23;;;;;;;0.80;0.80;;;27.90;54.00;;;;;;5013197;28;20444;-68
2022/07/26 13:36:49;;;;;;;0.80;0.80;;;27.90;53.30;;;;;;5013746;28;20909;-67
2022/07/26 13:39:16;;;;;;;4.10;0.70;;;27.90;54.50;;;;;;5013522;28;20206;-67
2022/07/26 13:41:42;;;;;;;0.80;0.73;;;27.90;54.20;;;;;;5013869;28;20453;-68
2022/07/26 13:44:07;;;;;;;0.93;0.83;;;27.80;53.70;;;;;;5013271;28;20405;-69
2022/07/26 13:46:33;;;;;;;5.03;0.93;;;27.70;54.40;;;;;;5013906;28;20421;-68
2022/07/26 13:49:00;;;;;;;0.73;0.73;;;27.80;54.80;;;;;;5013685;28;20182;-68
2022/07/26 13:54:14;;;;;;;0.70;0.70;;;27.70;53.90;;;;;;5013471;28;20501;-66
2022/07/26 13:56:40;;;;;;;0.80;0.80;;;27.60;53.70;;;;;;5012610;28;20408;-68
2022/07/26 13:59:06;;;;;;;7.97;0.83;;;27.50;55.40;;;;;;5013478;28;20453;-68
2022/07/26 14:01:32;;;;;;;1.00;1.00;;;27.40;54.60;;;;;;5013172;28;20186;-68
2022/07/26 14:03:59;;;;;;;1.00;1.00;;;27.40;56.00;;;;;;5013072;28;20190;-68
2022/07/26 14:06:25;;;;;;;0.80;0.80;;;27.50;56.20;;;;;;5013616;28;20891;-68
2022/07/26 14:08:51;;;;;;;0.93;0.70;;;27.60;55.90;;;;;;5013708;28;20417;-67
2022/07/26 14:11:17;;;;;;;0.97;0.97;;;27.70;55.70;;;;;;5013363;28;20447;-67
2022/07/26 14:13:42;;;;;;;0.90;0.90;;;27.80;54.60;;;;;;5011692;28;20452;-68
2022/07/26 14:16:08;;;;;;;2.03;1.10;;;27.90;54.70;;;;;;5013709;28;20190;-68
2022/07/26 14:18:34;;;;;;;1.07;0.90;;;27.90;54.60;;;;;;5012136;28;20203;-68
2022/07/26 14:21:00;;;;;;;0.70;0.70;;;27.90;54.70;;;;;;5013197;28;20261;-70
2022/07/26 14:23:26;;;;;;;0.80;0.80;;;27.90;53.50;;;;;;5013044;28;20220;-68
2022/07/26 14:25:52;;;;;;;0.70;0.70;;;27.90;55.00;;;;;;5013592;28;20445;-68
2022/07/26 14:28:17;;;;;;;0.67;0.67;;;27.90;54.80;;;;;;5013035;28;20230;-68
2022/07/26 14:30:43;;;;;;;0.80;0.80;;;27.90;54.60;;;;;;5013259;28;20176;-67
2022/07/26 14:33:08;;;;;;;0.90;0.90;;;27.90;53.00;;;;;;5012972;28;20171;-68
2022/07/26 14:35:34;;;;;;;1.10;1.00;;;27.80;53.80;;;;;;5013245;28;20259;-68
2022/07/26 14:38:00;;;;;;;4.50;1.10;;;27.70;53.90;;;;;;5012923;28;20179;-70
2022/07/26 14:40:25;;;;;;;0.83;0.80;;;27.40;54.20;;;;;;5012891;28;20249;-68
2022/07/26 14:42:51;;;;;;;0.90;0.90;;;27.20;53.80;;;;;;5012940;28;20177;-68
2022/07/26 14:45:17;;;;;;;1.10;0.90;;;27.00;54.60;;;;;;5011861;28;20195;-67
2022/07/26 14:47:43;;;;;;;0.70;0.70;;;26.90;55.10;;;;;;5013366;28;20167;-69
2022/07/26 14:50:10;;;;;;;1.00;1.00;;;26.90;54.50;;;;;;5012150;28;20190;-68
2022/07/26 14:52:40;;;;;;;4.93;1.10;;;26.80;54.10;;;;;;5011540;28;20425;-69
2022/07/26 14:55:07;;;;;;;1.33;1.30;;;26.90;55.60;;;;;;5012902;28;20445;-67
2022/07/26 14:57:33;;;;;;;3.33;2.57;;;26.90;56.40;;;;;;5016137;28;20388;-68
2022/07/26 14:59:58;;;;;;;0.80;0.80;;;26.90;56.20;;;;;;5016434;28;21066;-70
2022/07/26 15:02:24;;;;;;;0.63;0.63;;;26.80;55.60;;;;;;5015845;28;20869;-69
2022/07/26 15:04:50;;;;;;;0.97;0.80;;;26.70;56.00;;;;;;5016422;28;20218;-69
2022/07/26 15:07:15;;;;;;;1.33;1.23;;;26.60;57.10;;;;;;5016901;28;20174;-70
2022/07/26 15:09:41;;;;;;;1.20;1.20;;;26.60;56.70;;;;;;5016004;28;20758;-70
2022/07/26 15:12:07;;;;;;;1.47;1.23;;;26.70;55.20;;;;;;5016611;28;20171;-69
2022/07/26 15:14:32;;;;;;;1.43;1.00;;;26.70;54.80;;;;;;5015828;28;20210;-69
2022/07/26 15:16:58;;;;;;;0.90;0.90;;;26.80;55.40;;;;;;5016435;28;20541;-70
2022/07/26 15:19:24;;;;;;;1.00;1.00;;;27.00;55.50;;;;;;5015214;28;20211;-67
2022/07/26 15:21:51;;;;;;;0.63;0.63;;;27.10;55.20;;;;;;5016143;28;20588;-68
2022/07/26 15:24:17;;;;;;;0.90;0.90;;;27.20;54.60;;;;;;5016045;28;20195;-69
2022/07/26 15:26:43;;;;;;;1.00;1.00;;;27.40;54.20;;;;;;5015928;28;20479;-68
2022/07/26 15:29:08;;;;;;;0.80;0.80;;;27.30;53.70;;;;;;5016452;28;20266;-69
2022/07/26 15:31:34;;;;;;;1.00;0.97;;;27.20;54.20;;;;;;5016320;28;20175;-70
2022/07/26 15:34:00;;;;;;;1.60;0.90;;;27.10;54.90;;;;;;5015726;28;20195;-69
2022/07/26 15:36:25;;;;;;;0.70;0.70;;;26.90;55.10;;;;;;5015897;28;20674;-69
2022/07/26 15:38:51;;;;;;;0.97;0.97;;;26.90;55.10;;;;;;5016174;28;20194;-71
2022/07/26 15:41:16;;;;;;;1.60;0.90;;;26.90;54.60;;;;;;5016134;28;20171;-69
2022/07/26 15:43:42;;;;;;;1.23;1.00;;;27.00;55.20;;;;;;5015436;28;20210;-69
2022/07/26 15:46:08;;;;;;;0.87;0.87;;;27.00;55.40;;;;;;5015617;28;20174;-70
2022/07/26 15:48:33;;;;;;;1.27;1.00;;;27.00;54.70;;;;;;5015707;28;20171;-69
2022/07/26 15:51:00;;;;;;;1.87;1.70;;;27.00;55.10;;;;;;5015683;28;20637;-70
2022/07/26 15:53:28;;;;;;;1.50;1.40;;;27.00;55.00;;;;;;5013905;28;20230;-69
2022/07/26 15:55:54;;;;;;;0.80;0.80;;;26.90;54.90;;;;;;5015357;28;20411;-69
2022/07/26 15:58:20;;;;;;;1.00;1.00;;;26.90;54.70;;;;;;5013937;28;20744;-70
2022/07/26 16:00:48;;;;;;;0.80;0.80;;;26.90;55.20;;;;;;5015688;28;20472;-71
2022/07/26 16:03:14;;;;;;;0.90;0.90;;;26.90;54.90;;;;;;5015273;28;20186;-71
2022/07/26 16:05:39;;;;;;;0.80;0.80;;;26.90;55.70;;;;;;5015015;28;20404;-70
2022/07/26 16:08:06;;;;;;;1.23;0.80;;;26.90;55.10;;;;;;5014359;28;20186;-69
2022/07/26 16:10:31;;;;;;;2.43;1.43;;;26.70;55.20;;;;;;5015616;28;20175;-69
2022/07/26 16:12:58;;;;;;;0.50;0.50;;;26.60;55.50;;;;;;5014934;28;20421;-70
2022/07/26 16:15:24;;;;;;;1.63;0.83;;;26.50;55.60;;;;;;5015231;28;20199;-71
2022/07/26 16:17:49;;;;;;;1.43;1.33;;;26.40;56.10;;;;;;5013490;28;20811;-70
2022/07/26 16:20:18;;;;;;;1.27;1.00;;;26.40;55.40;;;;;;5015165;28;20213;-70
2022/07/26 16:22:44;;;;;;;1.30;1.20;;;26.40;56.20;;;;;;5014705;28;20203;-70
2022/07/26 16:25:14;;;;;;;1.53;1.43;;;26.30;57.60;;;;;;5014456;28;20452;-69
2022/07/26 16:27:42;;;;;;;3.90;3.07;;;26.30;58.30;;;;;;5015257;28;20456;-72
2022/07/26 16:30:09;;;;;;;1.17;1.13;;;26.20;58.50;;;;;;5014999;28;20471;-70
2022/07/26 16:32:35;;;;;;;1.00;1.00;;;26.20;58.40;;;;;;5013155;28;20430;-70
2022/07/26 16:35:00;;;;;;;1.30;1.20;;;26.10;58.20;;;;;;5012587;28;20752;-72
2022/07/26 16:37:26;;;;;;;0.80;0.80;;;26.00;58.60;;;;;;5015109;28;20175;-69
2022/07/26 16:39:54;;;;;;;0.93;0.93;;;26.00;57.80;;;;;;5015143;28;20242;-72
2022/07/26 16:42:20;;;;;;;0.90;0.90;;;25.90;57.80;;;;;;5014476;28;20580;-70
2022/07/26 16:44:46;;;;;;;1.00;1.00;;;25.90;57.10;;;;;;4996727;28;20565;-71
2022/07/26 16:47:11;;;;;;;1.07;1.07;;;25.90;56.90;;;;;;5013530;28;20525;-70
2022/07/26 16:49:37;;;;;;;1.13;1.03;;;25.90;57.40;;;;;;5014732;28;20171;-69
2022/07/26 16:52:03;;;;;;;1.33;1.13;;;25.90;57.40;;;;;;5014615;28;20181;-70
2022/07/26 16:54:29;;;;;;;1.27;1.17;;;25.90;57.50;;;;;;5013754;28;20203;-70
2022/07/26 16:56:55;;;;;;;0.93;0.93;;;25.90;57.40;;;;;;5012615;28;20946;-70
2022/07/26 16:59:21;;;;;;;1.10;1.10;;;25.90;57.70;;;;;;5012994;28;20539;-70